createdAt,value
2018-09-15T00:00:56.085Z,16.38
2018-09-15T00:03:25.204Z,16.44
2018-09-15T00:05:54.101Z,16.45
2018-09-15T00:08:22.741Z,16.47
2018-09-15T00:10:51.421Z,16.36
2018-09-15T00:13:21.143Z,16.32
2018-09-15T00:15:50.076Z,16.24
2018-09-15T00:18:19.191Z,15.97
2018-09-15T00:20:47.833Z,16.01
2018-09-15T00:23:16.526Z,16.03
2018-09-15T00:25:45.164Z,15.82
2018-09-15T00:28:13.915Z,16.01
2018-09-15T00:30:43.148Z,15.85
2018-09-15T00:33:11.905Z,15.84
2018-09-15T00:35:40.587Z,16.05
2018-09-15T00:38:09.268Z,16.24
2018-09-15T00:40:37.912Z,16.52
2018-09-15T00:43:06.616Z,16.47
2018-09-15T00:45:35.223Z,16.44
2018-09-15T00:48:03.899Z,16.32
2018-09-15T00:50:32.556Z,16.17
2018-09-15T00:53:01.215Z,15.90
2018-09-15T00:55:29.830Z,15.62
2018-09-15T00:57:58.499Z,15.75
2018-09-15T01:00:27.250Z,15.92
2018-09-15T01:02:55.987Z,16.08
2018-09-15T01:05:24.678Z,15.98
2018-09-15T01:07:53.325Z,16.06
2018-09-15T01:10:22.064Z,16.03
2018-09-15T01:12:50.718Z,15.94
2018-09-15T01:15:19.416Z,15.90
2018-09-15T01:17:48.099Z,15.90
2018-09-15T01:20:16.835Z,15.96
2018-09-15T01:22:45.514Z,15.87
2018-09-15T01:25:14.192Z,15.67
2018-09-15T01:27:42.880Z,15.79
2018-09-15T01:30:11.566Z,15.78
2018-09-15T01:32:40.202Z,15.77
2018-09-15T01:35:08.893Z,15.80
2018-09-15T01:37:37.545Z,15.79
2018-09-15T01:40:06.230Z,15.81
2018-09-15T01:42:34.871Z,15.87
2018-09-15T01:45:03.547Z,15.89
2018-09-15T01:47:32.235Z,15.83
2018-09-15T01:50:00.892Z,15.98
2018-09-15T01:52:29.619Z,16.26
2018-09-15T01:54:58.301Z,16.11
2018-09-15T01:57:27.075Z,15.93
2018-09-15T01:59:55.756Z,16.00
2018-09-15T02:02:24.403Z,16.00
2018-09-15T02:04:53.095Z,16.12
2018-09-15T02:07:21.758Z,16.19
2018-09-15T02:09:50.438Z,16.02
2018-09-15T02:12:19.069Z,15.79
2018-09-15T02:14:47.726Z,15.66
2018-09-15T02:17:16.392Z,15.56
2018-09-15T02:19:45.060Z,15.27
2018-09-15T02:22:13.728Z,15.17
2018-09-15T02:24:42.384Z,15.19
2018-09-15T02:27:11.038Z,15.02
2018-09-15T02:29:39.716Z,15.10
2018-09-15T02:32:08.415Z,15.21
2018-09-15T02:34:37.060Z,15.27
2018-09-15T02:37:05.835Z,15.21
2018-09-15T02:39:34.461Z,15.24
2018-09-15T02:42:03.106Z,15.23
2018-09-15T02:44:31.786Z,15.10
2018-09-15T02:47:00.431Z,15.25
2018-09-15T02:49:29.057Z,15.47
2018-09-15T02:51:57.726Z,15.55
2018-09-15T02:54:26.389Z,15.69
2018-09-15T02:56:55.019Z,15.62
2018-09-15T02:59:23.659Z,15.35
2018-09-15T03:01:52.340Z,15.37
2018-09-15T03:04:21.108Z,15.40
2018-09-15T03:06:49.758Z,15.40
2018-09-15T03:09:18.424Z,15.39
2018-09-15T03:11:47.068Z,15.34
2018-09-15T03:14:15.749Z,15.01
2018-09-15T03:16:44.381Z,15.18
2018-09-15T03:19:13.003Z,15.22
2018-09-15T03:21:41.654Z,15.34
2018-09-15T03:24:10.274Z,15.49
2018-09-15T03:26:38.977Z,15.45
2018-09-15T03:29:07.613Z,15.15
2018-09-15T03:31:36.324Z,14.83
2018-09-15T03:34:05.015Z,14.73
2018-09-15T03:36:33.629Z,14.56
2018-09-15T03:39:02.282Z,14.57
2018-09-15T03:41:31.009Z,14.88
2018-09-15T03:43:59.581Z,15.08
2018-09-15T03:46:28.197Z,15.11
2018-09-15T03:48:56.891Z,15.26
2018-09-15T03:51:25.536Z,15.18
2018-09-15T03:53:54.179Z,15.21
2018-09-15T03:56:22.867Z,15.21
2018-09-15T03:58:51.564Z,15.27
2018-09-15T04:01:20.216Z,15.20
2018-09-15T04:03:48.875Z,15.21
2018-09-15T04:06:17.556Z,15.21
2018-09-15T04:08:46.185Z,15.22
2018-09-15T04:11:14.864Z,15.11
2018-09-15T04:13:43.511Z,11.97
2018-09-15T04:16:12.185Z,14.29
2018-09-15T04:18:40.827Z,14.15
2018-09-15T04:21:09.532Z,14.14
2018-09-15T04:23:38.172Z,14.45
2018-09-15T04:26:06.844Z,14.64
2018-09-15T04:28:35.533Z,14.74
2018-09-15T04:31:04.215Z,14.91
2018-09-15T04:33:33.038Z,14.98
2018-09-15T04:36:01.751Z,15.20
2018-09-15T04:38:30.407Z,15.31
2018-09-15T04:40:59.110Z,15.24
2018-09-15T04:43:27.772Z,15.56
2018-09-15T04:45:56.428Z,15.55
2018-09-15T04:48:25.080Z,15.71
2018-09-15T04:50:53.764Z,16.05
2018-09-15T04:53:22.457Z,16.28
2018-09-15T04:55:51.409Z,16.36
2018-09-15T04:58:20.787Z,16.60
2018-09-15T05:00:49.493Z,16.90
2018-09-15T05:03:18.265Z,16.95
2018-09-15T05:05:46.901Z,17.09
2018-09-15T05:08:15.599Z,17.51
2018-09-15T05:10:44.267Z,17.65
2018-09-15T05:13:13.021Z,17.78
2018-09-15T05:15:41.704Z,18.13
2018-09-15T05:18:10.322Z,18.31
2018-09-15T05:20:38.939Z,18.73
2018-09-15T05:23:07.724Z,19.15
2018-09-15T05:25:36.367Z,19.52
2018-09-15T05:28:05.023Z,19.67
2018-09-15T05:30:33.668Z,19.27
2018-09-15T05:33:02.305Z,19.34
2018-09-15T05:35:30.975Z,19.52
2018-09-15T05:37:59.788Z,19.76
2018-09-15T05:40:28.415Z,19.94
2018-09-15T05:42:57.099Z,19.96
2018-09-15T05:45:26.126Z,20.09
2018-09-15T05:47:54.840Z,20.32
2018-09-15T05:50:23.499Z,20.64
2018-09-15T05:52:52.179Z,20.47
2018-09-15T05:55:20.901Z,20.93
2018-09-15T05:57:49.598Z,21.09
2018-09-15T06:00:23.108Z,21.32
2018-09-15T06:02:51.780Z,21.19
2018-09-15T06:05:20.438Z,21.18
2018-09-15T06:07:49.236Z,21.32
2018-09-15T06:10:17.845Z,21.61
2018-09-15T06:12:46.513Z,21.75
2018-09-15T06:15:15.168Z,21.96
2018-09-15T06:17:43.840Z,21.55
2018-09-15T06:20:12.572Z,21.62
2018-09-15T06:22:41.212Z,21.91
2018-09-15T06:25:09.888Z,22.43
2018-09-15T06:27:38.556Z,22.34
2018-09-15T06:30:11.736Z,22.21
2018-09-15T06:32:40.431Z,22.36
2018-09-15T06:35:09.228Z,22.50
2018-09-15T06:37:37.871Z,22.99
2018-09-15T06:40:06.630Z,22.49
2018-09-15T06:42:35.272Z,22.79
2018-09-15T06:45:04.043Z,23.08
2018-09-15T06:47:32.727Z,23.62
2018-09-15T06:50:01.400Z,22.73
2018-09-15T06:52:30.301Z,22.67
2018-09-15T06:54:58.992Z,22.89
2018-09-15T06:57:27.676Z,22.89
2018-09-15T06:59:56.380Z,22.93
2018-09-15T07:02:25.353Z,22.77
2018-09-15T07:04:54.063Z,23.47
2018-09-15T07:07:22.790Z,18.85
2018-09-15T07:09:51.414Z,23.64
2018-09-15T07:12:20.084Z,23.49
2018-09-15T07:14:48.753Z,23.66
2018-09-15T07:17:17.419Z,23.28
2018-09-15T07:19:46.149Z,22.79
2018-09-15T07:22:14.847Z,22.97
2018-09-15T07:24:43.469Z,23.12
2018-09-15T07:27:12.174Z,23.74
2018-09-15T07:29:40.816Z,24.35
2018-09-15T07:32:09.489Z,24.27
2018-09-15T07:34:38.279Z,24.45
2018-09-15T07:37:07.042Z,24.69
2018-09-15T07:39:35.694Z,23.89
2018-09-15T07:42:04.345Z,24.26
2018-09-15T07:44:33.021Z,24.18
2018-09-15T07:47:01.660Z,24.47
2018-09-15T07:49:30.448Z,24.52
2018-09-15T07:51:59.079Z,24.48
2018-09-15T07:54:27.728Z,24.54
2018-09-15T07:56:56.555Z,24.42
2018-09-15T07:59:25.251Z,24.73
2018-09-15T08:01:54.045Z,25.22
2018-09-15T08:04:22.677Z,25.52
2018-09-15T08:06:51.315Z,25.89
2018-09-15T08:09:20.054Z,26.02
2018-09-15T08:11:48.805Z,25.87
2018-09-15T08:14:17.447Z,25.75
2018-09-15T08:16:46.160Z,26.20
2018-09-15T08:19:14.938Z,26.88
2018-09-15T08:21:43.602Z,26.16
2018-09-15T08:24:12.299Z,25.73
2018-09-15T08:26:40.933Z,25.44
2018-09-15T08:29:09.555Z,24.74
2018-09-15T08:31:38.220Z,24.73
2018-09-15T08:34:06.927Z,25.13
2018-09-15T08:36:35.684Z,24.88
2018-09-15T08:39:05.156Z,24.89
2018-09-15T08:41:33.875Z,25.25
2018-09-15T08:44:02.540Z,25.43
2018-09-15T08:46:31.318Z,25.16
2018-09-15T08:48:59.977Z,25.06
2018-09-15T08:51:28.686Z,25.19
2018-09-15T08:53:57.378Z,24.34
2018-09-15T08:56:26.015Z,25.44
2018-09-15T08:58:54.755Z,25.59
2018-09-15T09:01:23.538Z,25.36
2018-09-15T09:03:52.315Z,25.59
2018-09-15T09:06:20.935Z,25.46
2018-09-15T09:08:49.667Z,25.09
2018-09-15T09:11:18.470Z,26.00
2018-09-15T09:13:47.230Z,26.76
2018-09-15T09:16:16.004Z,26.54
2018-09-15T09:18:45.072Z,25.95
2018-09-15T09:21:13.752Z,25.59
2018-09-15T09:23:42.479Z,25.50
2018-09-15T09:26:11.222Z,25.90
2018-09-15T09:28:39.864Z,26.80
2018-09-15T09:31:08.779Z,27.72
2018-09-15T09:33:37.508Z,28.46
2018-09-15T09:36:06.257Z,29.07
2018-09-15T09:38:35.016Z,29.15
2018-09-15T09:41:03.747Z,29.36
2018-09-15T09:43:32.993Z,29.69
2018-09-15T09:46:04.010Z,29.82
2018-09-15T09:48:32.674Z,29.82
2018-09-15T09:51:01.472Z,30.13
2018-09-15T09:53:30.527Z,30.31
2018-09-15T09:55:59.258Z,30.40
2018-09-15T09:58:28.525Z,31.10
2018-09-15T10:00:58.306Z,31.25
2018-09-15T10:03:27.502Z,30.85
2018-09-15T10:05:56.615Z,30.64
2018-09-15T10:08:25.286Z,30.51
2018-09-15T10:10:54.731Z,30.78
2018-09-15T10:13:24.737Z,31.02
2018-09-15T10:15:53.505Z,31.12
2018-09-15T10:18:22.363Z,31.25
2018-09-15T10:20:51.052Z,31.20
2018-09-15T10:23:19.793Z,31.02
2018-09-15T10:25:48.508Z,31.01
2018-09-15T10:28:17.563Z,31.18
2018-09-15T10:30:46.212Z,31.62
2018-09-15T10:33:15.127Z,31.44
2018-09-15T10:35:43.933Z,31.91
2018-09-15T10:38:12.966Z,31.23
2018-09-15T10:40:42.187Z,30.18
2018-09-15T10:43:10.947Z,29.78
2018-09-15T10:45:39.988Z,29.37
2018-09-15T10:48:08.735Z,30.06
2018-09-15T10:50:37.432Z,30.49
2018-09-15T10:53:06.174Z,31.06
2018-09-15T10:55:34.962Z,31.50
2018-09-15T10:58:03.699Z,32.05
2018-09-15T11:00:32.533Z,31.80
2018-09-15T11:03:01.187Z,31.85
2018-09-15T11:05:29.934Z,32.10
2018-09-15T11:07:58.692Z,31.15
2018-09-15T11:10:27.419Z,30.62
2018-09-15T11:12:56.187Z,29.46
2018-09-15T11:15:24.838Z,29.23
2018-09-15T11:17:53.556Z,30.80
2018-09-15T11:20:22.224Z,32.04
2018-09-15T11:22:50.920Z,32.60
2018-09-15T11:25:19.499Z,32.92
2018-09-15T11:27:48.425Z,32.64
2018-09-15T11:30:17.130Z,32.75
2018-09-15T11:32:45.819Z,32.82
2018-09-15T11:35:14.518Z,32.08
2018-09-15T11:37:43.231Z,31.49
2018-09-15T11:40:11.906Z,32.26
2018-09-15T11:42:40.843Z,32.09
2018-09-15T11:45:09.558Z,31.30
2018-09-15T11:47:38.312Z,30.79
2018-09-15T11:50:07.042Z,30.66
2018-09-15T11:52:36.598Z,30.46
2018-09-15T11:55:05.382Z,29.84
2018-09-15T11:57:34.371Z,29.26
2018-09-15T12:00:04.002Z,28.99
2018-09-15T12:02:33.607Z,29.41
2018-09-15T12:05:03.283Z,29.87
2018-09-15T12:07:32.279Z,30.22
2018-09-15T12:10:01.055Z,29.27
2018-09-15T12:12:30.175Z,29.13
2018-09-15T12:14:59.269Z,29.18
2018-09-15T12:17:28.039Z,28.83
2018-09-15T12:19:57.334Z,28.21
2018-09-15T12:22:26.053Z,28.22
2018-09-15T12:24:54.770Z,28.15
2018-09-15T12:27:23.476Z,28.53
2018-09-15T12:29:52.493Z,28.72
2018-09-15T12:32:21.372Z,28.30
2018-09-15T12:34:51.006Z,28.23
2018-09-15T12:37:19.751Z,28.75
2018-09-15T12:39:48.432Z,29.30
2018-09-15T12:42:17.190Z,28.73
2018-09-15T12:44:45.979Z,28.43
2018-09-15T12:47:14.715Z,28.43
2018-09-15T12:49:43.451Z,28.04
2018-09-15T12:52:12.501Z,28.29
2018-09-15T12:54:41.207Z,28.61
2018-09-15T12:57:09.855Z,28.53
2018-09-15T12:59:38.655Z,28.34
2018-09-15T13:02:07.383Z,28.33
2018-09-15T13:04:36.127Z,28.00
2018-09-15T13:07:04.830Z,27.69
2018-09-15T13:09:33.592Z,27.62
2018-09-15T13:12:02.341Z,24.03
2018-09-15T13:14:31.600Z,27.55
2018-09-15T13:17:00.259Z,27.81
2018-09-15T13:19:28.951Z,28.27
2018-09-15T13:21:57.984Z,28.63
2018-09-15T13:24:26.886Z,28.50
2018-09-15T13:26:55.798Z,28.32
2018-09-15T13:29:24.559Z,28.06
2018-09-15T13:31:53.298Z,28.04
2018-09-15T13:34:22.006Z,28.02
2018-09-15T13:36:50.830Z,28.01
2018-09-15T13:39:19.615Z,28.03
2018-09-15T13:41:48.339Z,28.04
2018-09-15T13:44:17.110Z,27.96
2018-09-15T13:46:45.829Z,27.63
2018-09-15T13:49:14.630Z,27.43
2018-09-15T13:51:43.302Z,27.23
2018-09-15T13:54:12.068Z,27.19
2018-09-15T13:56:40.880Z,27.01
2018-09-15T13:59:09.642Z,26.88
2018-09-15T14:01:38.302Z,26.74
2018-09-15T14:04:06.960Z,26.73
2018-09-15T14:06:35.658Z,26.75
2018-09-15T14:09:05.426Z,26.78
2018-09-15T14:11:34.109Z,26.67
2018-09-15T14:14:02.828Z,26.73
2018-09-15T14:16:31.537Z,26.72
2018-09-15T14:19:00.170Z,26.59
2018-09-15T14:21:28.925Z,26.50
2018-09-15T14:23:57.651Z,26.47
2018-09-15T14:26:26.450Z,26.38
2018-09-15T14:28:55.143Z,26.29
2018-09-15T14:31:24.871Z,26.29
2018-09-15T14:33:54.619Z,26.24
2018-09-15T14:36:23.345Z,26.18
2018-09-15T14:38:52.135Z,26.17
2018-09-15T14:41:20.909Z,26.15
2018-09-15T14:43:49.632Z,26.15
2018-09-15T14:46:18.287Z,26.13
2018-09-15T14:48:46.999Z,26.18
2018-09-15T14:51:15.689Z,26.18
2018-09-15T14:53:44.601Z,26.27
2018-09-15T14:56:13.312Z,26.36
2018-09-15T14:58:45.580Z,22.85
2018-09-15T15:01:14.474Z,26.54
2018-09-15T15:04:00.928Z,26.63
2018-09-15T15:06:29.678Z,26.62
2018-09-15T15:08:58.435Z,26.54
2018-09-15T15:11:27.221Z,26.52
2018-09-15T15:13:55.961Z,26.48
2018-09-15T15:16:24.901Z,26.38
2018-09-15T15:18:53.585Z,26.33
2018-09-15T15:21:22.260Z,26.25
2018-09-15T15:23:50.955Z,26.10
2018-09-15T15:26:19.669Z,26.02
2018-09-15T15:28:48.316Z,26.00
2018-09-15T15:31:17.016Z,25.97
2018-09-15T15:33:45.815Z,25.91
2018-09-15T15:36:14.585Z,25.87
2018-09-15T15:38:43.214Z,25.84
2018-09-15T15:41:11.986Z,25.73
2018-09-15T15:43:40.758Z,25.66
2018-09-15T15:46:09.410Z,25.58
2018-09-15T15:48:38.131Z,25.39
2018-09-15T15:51:06.949Z,25.29
2018-09-15T15:53:35.704Z,25.19
2018-09-15T15:56:04.463Z,25.07
2018-09-15T15:58:33.344Z,25.01
2018-09-15T16:01:01.874Z,24.95
2018-09-15T16:03:30.594Z,24.91
2018-09-15T16:05:59.293Z,24.85
2018-09-15T16:08:27.947Z,24.75
2018-09-15T16:10:56.728Z,24.80
2018-09-15T16:13:25.480Z,24.80
2018-09-15T16:15:54.198Z,24.79
2018-09-15T16:18:23.013Z,24.78
2018-09-15T16:20:51.694Z,24.76
2018-09-15T16:23:20.375Z,24.77
2018-09-15T16:25:49.078Z,24.74
2018-09-15T16:28:17.736Z,24.70
2018-09-15T16:30:46.484Z,24.55
2018-09-15T16:33:15.204Z,24.33
2018-09-15T16:35:43.895Z,24.10
2018-09-15T16:38:12.615Z,23.94
2018-09-15T16:40:41.512Z,23.69
2018-09-15T16:43:10.276Z,23.53
2018-09-15T16:45:38.985Z,23.48
2018-09-15T16:48:07.690Z,23.37
2018-09-15T16:50:36.348Z,23.26
2018-09-15T16:53:05.328Z,23.24
2018-09-15T16:55:34.176Z,23.28
2018-09-15T16:58:02.860Z,23.28
2018-09-15T17:00:31.672Z,23.27
2018-09-15T17:03:00.861Z,23.24
2018-09-15T17:05:29.841Z,23.19
2018-09-15T17:07:58.593Z,23.21
2018-09-15T17:10:27.336Z,23.14
2018-09-15T17:12:56.007Z,23.09
2018-09-15T17:15:24.853Z,23.04
2018-09-15T17:17:53.605Z,22.96
2018-09-15T17:20:22.583Z,22.84
2018-09-15T17:22:51.437Z,22.63
2018-09-15T17:25:20.156Z,22.55
2018-09-15T17:27:48.916Z,22.54
2018-09-15T17:30:17.647Z,22.46
2018-09-15T17:32:46.323Z,22.43
2018-09-15T17:35:14.982Z,22.42
2018-09-15T17:37:43.609Z,22.35
2018-09-15T17:40:12.269Z,22.30
2018-09-15T17:42:40.936Z,22.30
2018-09-15T17:45:09.641Z,22.26
2018-09-15T17:47:38.342Z,22.22
2018-09-15T17:50:07.010Z,22.19
2018-09-15T17:52:35.765Z,22.13
2018-09-15T17:55:04.507Z,22.07
2018-09-15T17:57:33.173Z,21.96
2018-09-15T18:00:01.865Z,21.83
2018-09-15T18:02:30.542Z,21.75
2018-09-15T18:04:59.223Z,21.65
2018-09-15T18:07:27.885Z,21.59
2018-09-15T18:09:56.590Z,21.49
2018-09-15T18:12:25.328Z,21.46
2018-09-15T18:14:54.023Z,21.47
2018-09-15T18:17:22.796Z,21.49
2018-09-15T18:19:51.437Z,21.48
2018-09-15T18:22:20.119Z,21.48
2018-09-15T18:24:48.764Z,21.47
2018-09-15T18:27:17.478Z,21.43
2018-09-15T18:29:46.200Z,21.42
2018-09-15T18:32:15.319Z,21.43
2018-09-15T18:34:44.027Z,21.37
2018-09-15T18:37:12.738Z,21.36
2018-09-15T18:39:41.394Z,21.30
2018-09-15T18:42:10.061Z,21.34
2018-09-15T18:44:38.759Z,21.24
2018-09-15T18:47:07.442Z,21.25
2018-09-15T18:49:36.147Z,21.28
2018-09-15T18:52:04.852Z,21.27
2018-09-15T18:54:33.680Z,21.27
2018-09-15T18:57:02.351Z,21.26
2018-09-15T18:59:31.029Z,21.27
2018-09-15T19:01:59.671Z,21.24
2018-09-15T19:04:28.347Z,21.20
2018-09-15T19:06:56.995Z,21.19
2018-09-15T19:09:25.760Z,21.21
2018-09-15T19:11:54.514Z,21.25
2018-09-15T19:14:23.401Z,21.23
2018-09-15T19:16:52.184Z,21.29
2018-09-15T19:19:20.967Z,21.29
2018-09-15T19:21:49.984Z,21.27
2018-09-15T19:24:18.735Z,21.29
2018-09-15T19:26:47.514Z,21.24
2018-09-15T19:29:16.089Z,21.20
2018-09-15T19:31:44.766Z,21.20
2018-09-15T19:34:13.576Z,21.18
2018-09-15T19:36:42.306Z,21.16
2018-09-15T19:39:13.046Z,21.14
2018-09-15T19:41:41.884Z,21.13
2018-09-15T19:44:10.807Z,21.11
2018-09-15T19:46:39.943Z,21.04
2018-09-15T19:49:09.585Z,20.98
2018-09-15T19:51:38.342Z,20.96
2018-09-15T19:54:07.232Z,20.89
2018-09-15T19:56:35.908Z,20.89
2018-09-15T19:59:04.669Z,20.86
2018-09-15T20:01:33.591Z,20.82
2018-09-15T20:04:02.349Z,20.81
2018-09-15T20:06:31.039Z,20.76
2018-09-15T20:08:59.674Z,20.74
2018-09-15T20:11:28.334Z,20.73
2018-09-15T20:13:57.023Z,20.71
2018-09-15T20:16:24.390Z,20.67
2018-09-15T20:18:51.746Z,20.64
2018-09-15T20:21:19.112Z,20.62
2018-09-15T20:23:47.800Z,20.60
2018-09-15T20:26:16.503Z,20.60
2018-09-15T20:28:45.250Z,20.53
2018-09-15T20:31:13.967Z,20.51
2018-09-15T20:33:42.606Z,20.49
2018-09-15T20:36:11.291Z,20.47
2018-09-15T20:38:39.989Z,20.46
2018-09-15T20:41:08.728Z,20.45
2018-09-15T20:43:37.446Z,20.42
2018-09-15T20:46:06.216Z,20.42
2018-09-15T20:48:34.886Z,20.40
2018-09-15T20:51:03.671Z,20.35
2018-09-15T20:53:32.303Z,20.30
2018-09-15T20:56:01.044Z,20.28
2018-09-15T20:58:29.731Z,20.26
2018-09-15T21:00:58.480Z,20.24
2018-09-15T21:03:27.285Z,20.20
2018-09-15T21:05:55.962Z,20.23
2018-09-15T21:08:24.623Z,20.19
2018-09-15T21:10:53.274Z,20.19
2018-09-15T21:13:21.936Z,20.14
2018-09-15T21:15:50.908Z,20.11
2018-09-15T21:18:19.559Z,20.08
2018-09-15T21:20:48.407Z,20.06
2018-09-15T21:23:17.078Z,20.04
2018-09-15T21:25:45.836Z,20.01
2018-09-15T21:28:14.526Z,19.99
2018-09-15T21:30:43.221Z,19.97
2018-09-15T21:33:11.882Z,19.94
2018-09-15T21:35:40.636Z,19.92
2018-09-15T21:38:09.318Z,19.91
2018-09-15T21:40:38.002Z,19.89
2018-09-15T21:43:06.714Z,19.87
2018-09-15T21:45:35.392Z,19.86
2018-09-15T21:48:04.037Z,19.86
2018-09-15T21:50:32.749Z,19.86
2018-09-15T21:53:01.396Z,19.84
2018-09-15T21:55:30.052Z,19.81
2018-09-15T21:57:58.723Z,19.76
2018-09-15T22:00:27.376Z,19.73
2018-09-15T22:02:56.043Z,19.71
2018-09-15T22:05:24.709Z,19.64
2018-09-15T22:07:53.362Z,19.63
2018-09-15T22:10:22.028Z,19.65
2018-09-15T22:12:50.679Z,19.66
2018-09-15T22:15:23.633Z,19.64
2018-09-15T22:17:52.386Z,19.63
2018-09-15T22:20:21.227Z,19.62
2018-09-15T22:22:50.006Z,19.63
2018-09-15T22:25:18.834Z,19.62
2018-09-15T22:27:48.113Z,19.38
2018-09-15T22:30:18.204Z,19.58
2018-09-15T22:32:46.881Z,19.59
2018-09-15T22:35:18.410Z,19.64
2018-09-15T22:37:47.328Z,19.61
2018-09-15T22:40:16.018Z,19.62
2018-09-15T22:42:44.708Z,19.61
2018-09-15T22:45:13.370Z,19.61
2018-09-15T22:47:42.053Z,19.59
2018-09-15T22:50:10.797Z,19.53
2018-09-15T22:52:39.454Z,19.48
2018-09-15T22:55:08.228Z,19.42
2018-09-15T22:57:37.111Z,19.39
2018-09-15T23:00:06.865Z,19.34
2018-09-15T23:02:35.516Z,19.30
2018-09-15T23:05:04.272Z,19.26
2018-09-15T23:07:33.002Z,19.23
2018-09-15T23:10:01.805Z,19.19
2018-09-15T23:12:30.483Z,19.21
2018-09-15T23:14:59.247Z,19.21
2018-09-15T23:17:27.928Z,19.20
2018-09-15T23:19:56.590Z,19.16
2018-09-15T23:22:25.284Z,19.15
2018-09-15T23:24:54.007Z,19.15
2018-09-15T23:27:22.635Z,19.15
2018-09-15T23:29:51.274Z,19.11
2018-09-15T23:32:19.919Z,19.00
2018-09-15T23:34:48.584Z,19.01
2018-09-15T23:37:17.237Z,19.00
2018-09-15T23:39:45.940Z,18.98
2018-09-15T23:42:14.700Z,18.92
2018-09-15T23:44:43.368Z,18.92
2018-09-15T23:47:12.028Z,18.87
2018-09-15T23:49:40.691Z,18.85
2018-09-15T23:52:09.385Z,18.85
2018-09-15T23:54:38.039Z,18.84
2018-09-15T23:57:06.794Z,18.84
2018-09-15T23:59:35.455Z,18.83
